sensor_id;sensor_type;location;lat;lon;timestamp;P1;P2;P0
49656;PMS5003;52851;38.810;-78.768;2022-07-05T00:00:39;9;8;
49656;PMS5003;52851;38.810;-78.768;2022-07-05T00:03:07;7;7;
49656;PMS5003;52851;38.810;-78.768;2022-07-05T00:05:35;6;5;
49656;PMS5003;52851;38.810;-78.768;2022-07-05T00:08:04;7;6;
49656;PMS5003;52851;38.810;-78.768;2022-07-05T00:10:34;5;5;
49656;PMS5003;52851;38.810;-78.768;2022-07-05T00:13:04;7;7;
49656;PMS5003;52851;38.810;-78.768;2022-07-05T00:15:34;7;7;
49656;PMS5003;52851;38.810;-78.768;2022-07-05T00:18:02;4;4;
49656;PMS5003;52851;38.810;-78.768;2022-07-05T00:20:30;5;4;
49656;PMS5003;52851;38.810;-78.768;2022-07-05T00:22:58;5;5;
49656;PMS5003;52851;38.810;-78.768;2022-07-05T00:25:26;8;4;
49656;PMS5003;52851;38.810;-78.768;2022-07-05T00:27:54;4;4;
49656;PMS5003;52851;38.810;-78.768;2022-07-05T00:30:23;6;5;
49656;PMS5003;52851;38.810;-78.768;2022-07-05T00:32:50;8;5;
49656;PMS5003;52851;38.810;-78.768;2022-07-05T00:35:18;3;3;
49656;PMS5003;52851;38.810;-78.768;2022-07-05T00:37:46;4;4;
49656;PMS5003;52851;38.810;-78.768;2022-07-05T00:40:14;6;6;
49656;PMS5003;52851;38.810;-78.768;2022-07-05T00:42:42;5;5;
49656;PMS5003;52851;38.810;-78.768;2022-07-05T00:45:10;7;5;
49656;PMS5003;52851;38.810;-78.768;2022-07-05T00:47:39;6;6;
49656;PMS5003;52851;38.810;-78.768;2022-07-05T00:50:07;7;5;
49656;PMS5003;52851;38.810;-78.768;2022-07-05T00:52:36;6;6;
49656;PMS5003;52851;38.810;-78.768;2022-07-05T00:55:04;7;6;
49656;PMS5003;52851;38.810;-78.768;2022-07-05T00:57:33;6;5;
49656;PMS5003;52851;38.810;-78.768;2022-07-05T01:00:02;5;5;
49656;PMS5003;52851;38.810;-78.768;2022-07-05T01:02:31;10;7;
49656;PMS5003;52851;38.810;-78.768;2022-07-05T01:04:59;6;5;
49656;PMS5003;52851;38.810;-78.768;2022-07-05T01:07:27;8;6;
49656;PMS5003;52851;38.810;-78.768;2022-07-05T01:09:56;10;9;
49656;PMS5003;52851;38.810;-78.768;2022-07-05T01:12:24;6;6;
49656;PMS5003;52851;38.810;-78.768;2022-07-05T01:14:52;5;5;
49656;PMS5003;52851;38.810;-78.768;2022-07-05T01:17:22;6;6;
49656;PMS5003;52851;38.810;-78.768;2022-07-05T01:19:50;5;5;
49656;PMS5003;52851;38.810;-78.768;2022-07-05T01:22:18;9;7;
49656;PMS5003;52851;38.810;-78.768;2022-07-05T01:24:47;7;6;
49656;PMS5003;52851;38.810;-78.768;2022-07-05T01:27:15;4;4;
49656;PMS5003;52851;38.810;-78.768;2022-07-05T01:29:44;6;6;
49656;PMS5003;52851;38.810;-78.768;2022-07-05T01:32:12;6;6;
49656;PMS5003;52851;38.810;-78.768;2022-07-05T01:34:41;6;5;
49656;PMS5003;52851;38.810;-78.768;2022-07-05T01:37:10;5;5;
49656;PMS5003;52851;38.810;-78.768;2022-07-05T01:39:37;7;5;
49656;PMS5003;52851;38.810;-78.768;2022-07-05T01:42:06;7;7;
49656;PMS5003;52851;38.810;-78.768;2022-07-05T01:44:34;10;9;
49656;PMS5003;52851;38.810;-78.768;2022-07-05T01:47:03;9;7;
49656;PMS5003;52851;38.810;-78.768;2022-07-05T01:49:34;6;6;
49656;PMS5003;52851;38.810;-78.768;2022-07-05T01:52:08;6;6;
49656;PMS5003;52851;38.810;-78.768;2022-07-05T01:54:37;6;4;
49656;PMS5003;52851;38.810;-78.768;2022-07-05T01:57:06;6;6;
49656;PMS5003;52851;38.810;-78.768;2022-07-05T01:59:34;5;4;
49656;PMS5003;52851;38.810;-78.768;2022-07-05T02:02:04;9;7;
49656;PMS5003;52851;38.810;-78.768;2022-07-05T02:04:34;8;6;
49656;PMS5003;52851;38.810;-78.768;2022-07-05T02:07:03;6;6;
49656;PMS5003;52851;38.810;-78.768;2022-07-05T02:09:32;6;5;
49656;PMS5003;52851;38.810;-78.768;2022-07-05T02:12:01;6;6;
49656;PMS5003;52851;38.810;-78.768;2022-07-05T02:14:30;3;3;
49656;PMS5003;52851;38.810;-78.768;2022-07-05T02:16:59;7;7;
49656;PMS5003;52851;38.810;-78.768;2022-07-05T02:19:26;6;6;
49656;PMS5003;52851;38.810;-78.768;2022-07-05T02:21:55;4;4;
49656;PMS5003;52851;38.810;-78.768;2022-07-05T02:24:22;6;6;
49656;PMS5003;52851;38.810;-78.768;2022-07-05T02:26:50;5;5;
49656;PMS5003;52851;38.810;-78.768;2022-07-05T02:29:18;7;5;
49656;PMS5003;52851;38.810;-78.768;2022-07-05T02:31:46;7;7;
49656;PMS5003;52851;38.810;-78.768;2022-07-05T02:34:14;7;6;
49656;PMS5003;52851;38.810;-78.768;2022-07-05T02:36:42;8;7;
49656;PMS5003;52851;38.810;-78.768;2022-07-05T02:39:10;7;7;
49656;PMS5003;52851;38.810;-78.768;2022-07-05T02:41:38;7;5;
49656;PMS5003;52851;38.810;-78.768;2022-07-05T02:44:06;6;6;
49656;PMS5003;52851;38.810;-78.768;2022-07-05T02:46:34;7;5;
49656;PMS5003;52851;38.810;-78.768;2022-07-05T02:49:02;7;7;
49656;PMS5003;52851;38.810;-78.768;2022-07-05T02:51:30;9;9;
49656;PMS5003;52851;38.810;-78.768;2022-07-05T02:53:57;6;6;
49656;PMS5003;52851;38.810;-78.768;2022-07-05T02:56:25;10;8;
49656;PMS5003;52851;38.810;-78.768;2022-07-05T02:58:53;7;7;
49656;PMS5003;52851;38.810;-78.768;2022-07-05T03:01:21;5;5;
49656;PMS5003;52851;38.810;-78.768;2022-07-05T03:03:49;6;6;
49656;PMS5003;52851;38.810;-78.768;2022-07-05T03:06:17;5;5;
49656;PMS5003;52851;38.810;-78.768;2022-07-05T03:08:45;6;4;
49656;PMS5003;52851;38.810;-78.768;2022-07-05T03:11:13;4;4;
49656;PMS5003;52851;38.810;-78.768;2022-07-05T03:13:41;8;6;
49656;PMS5003;52851;38.810;-78.768;2022-07-05T03:16:09;5;5;
49656;PMS5003;52851;38.810;-78.768;2022-07-05T03:18:38;7;7;
49656;PMS5003;52851;38.810;-78.768;2022-07-05T03:21:06;7;7;
49656;PMS5003;52851;38.810;-78.768;2022-07-05T03:23:34;7;7;
49656;PMS5003;52851;38.810;-78.768;2022-07-05T03:26:02;11;8;
49656;PMS5003;52851;38.810;-78.768;2022-07-05T03:28:29;7;6;
49656;PMS5003;52851;38.810;-78.768;2022-07-05T03:30:59;8;8;
49656;PMS5003;52851;38.810;-78.768;2022-07-05T03:33:27;8;8;
49656;PMS5003;52851;38.810;-78.768;2022-07-05T03:35:55;5;5;
49656;PMS5003;52851;38.810;-78.768;2022-07-05T03:38:23;5;5;
49656;PMS5003;52851;38.810;-78.768;2022-07-05T03:40:51;5;5;
49656;PMS5003;52851;38.810;-78.768;2022-07-05T03:43:19;6;6;
49656;PMS5003;52851;38.810;-78.768;2022-07-05T03:45:47;7;7;
49656;PMS5003;52851;38.810;-78.768;2022-07-05T03:48:15;8;7;
49656;PMS5003;52851;38.810;-78.768;2022-07-05T03:50:43;8;7;
49656;PMS5003;52851;38.810;-78.768;2022-07-05T03:53:11;6;6;
49656;PMS5003;52851;38.810;-78.768;2022-07-05T03:55:39;8;6;
49656;PMS5003;52851;38.810;-78.768;2022-07-05T03:58:07;5;5;
49656;PMS5003;52851;38.810;-78.768;2022-07-05T04:00:36;6;6;
49656;PMS5003;52851;38.810;-78.768;2022-07-05T04:03:04;5;5;
49656;PMS5003;52851;38.810;-78.768;2022-07-05T04:05:32;5;5;
49656;PMS5003;52851;38.810;-78.768;2022-07-05T04:08:00;4;4;
49656;PMS5003;52851;38.810;-78.768;2022-07-05T04:10:28;5;5;
49656;PMS5003;52851;38.810;-78.768;2022-07-05T04:12:56;7;6;
49656;PMS5003;52851;38.810;-78.768;2022-07-05T04:15:24;5;5;
49656;PMS5003;52851;38.810;-78.768;2022-07-05T04:17:52;4;4;
49656;PMS5003;52851;38.810;-78.768;2022-07-05T04:20:21;8;5;
49656;PMS5003;52851;38.810;-78.768;2022-07-05T04:22:50;7;6;
49656;PMS5003;52851;38.810;-78.768;2022-07-05T04:25:18;6;6;
49656;PMS5003;52851;38.810;-78.768;2022-07-05T04:27:47;5;4;
49656;PMS5003;52851;38.810;-78.768;2022-07-05T04:30:19;7;6;
49656;PMS5003;52851;38.810;-78.768;2022-07-05T04:32:48;8;6;
49656;PMS5003;52851;38.810;-78.768;2022-07-05T04:35:16;6;6;
49656;PMS5003;52851;38.810;-78.768;2022-07-05T04:37:44;6;6;
49656;PMS5003;52851;38.810;-78.768;2022-07-05T04:40:12;10;9;
49656;PMS5003;52851;38.810;-78.768;2022-07-05T04:42:42;5;5;
49656;PMS5003;52851;38.810;-78.768;2022-07-05T04:45:10;4;4;
49656;PMS5003;52851;38.810;-78.768;2022-07-05T04:47:38;6;6;
49656;PMS5003;52851;38.810;-78.768;2022-07-05T04:50:06;11;6;
49656;PMS5003;52851;38.810;-78.768;2022-07-05T04:52:35;6;6;
49656;PMS5003;52851;38.810;-78.768;2022-07-05T04:55:03;7;6;
49656;PMS5003;52851;38.810;-78.768;2022-07-05T04:57:36;8;7;
49656;PMS5003;52851;38.810;-78.768;2022-07-05T05:00:05;10;8;
49656;PMS5003;52851;38.810;-78.768;2022-07-05T05:02:35;6;6;
49656;PMS5003;52851;38.810;-78.768;2022-07-05T05:05:03;9;8;
49656;PMS5003;52851;38.810;-78.768;2022-07-05T05:07:32;6;5;
49656;PMS5003;52851;38.810;-78.768;2022-07-05T05:10:00;7;7;
49656;PMS5003;52851;38.810;-78.768;2022-07-05T05:12:28;7;7;
49656;PMS5003;52851;38.810;-78.768;2022-07-05T05:14:56;7;7;
49656;PMS5003;52851;38.810;-78.768;2022-07-05T05:17:24;11;9;
49656;PMS5003;52851;38.810;-78.768;2022-07-05T05:19:52;5;5;
49656;PMS5003;52851;38.810;-78.768;2022-07-05T05:22:20;8;5;
49656;PMS5003;52851;38.810;-78.768;2022-07-05T05:24:48;6;6;
49656;PMS5003;52851;38.810;-78.768;2022-07-05T05:27:16;5;5;
49656;PMS5003;52851;38.810;-78.768;2022-07-05T05:29:44;9;9;
49656;PMS5003;52851;38.810;-78.768;2022-07-05T05:32:13;5;5;
49656;PMS5003;52851;38.810;-78.768;2022-07-05T05:34:41;7;6;
49656;PMS5003;52851;38.810;-78.768;2022-07-05T05:37:09;10;8;
49656;PMS5003;52851;38.810;-78.768;2022-07-05T05:39:36;7;7;
49656;PMS5003;52851;38.810;-78.768;2022-07-05T05:42:05;8;7;
49656;PMS5003;52851;38.810;-78.768;2022-07-05T05:44:33;7;7;
49656;PMS5003;52851;38.810;-78.768;2022-07-05T05:47:01;7;6;
49656;PMS5003;52851;38.810;-78.768;2022-07-05T05:49:29;6;5;
49656;PMS5003;52851;38.810;-78.768;2022-07-05T05:51:57;7;7;
49656;PMS5003;52851;38.810;-78.768;2022-07-05T05:54:26;6;6;
49656;PMS5003;52851;38.810;-78.768;2022-07-05T05:56:53;6;6;
49656;PMS5003;52851;38.810;-78.768;2022-07-05T05:59:21;7;7;
49656;PMS5003;52851;38.810;-78.768;2022-07-05T06:01:49;7;7;
49656;PMS5003;52851;38.810;-78.768;2022-07-05T06:04:17;8;7;
49656;PMS5003;52851;38.810;-78.768;2022-07-05T06:06:45;7;6;
49656;PMS5003;52851;38.810;-78.768;2022-07-05T06:09:13;7;7;
49656;PMS5003;52851;38.810;-78.768;2022-07-05T06:11:41;9;8;
49656;PMS5003;52851;38.810;-78.768;2022-07-05T06:14:09;6;6;
49656;PMS5003;52851;38.810;-78.768;2022-07-05T06:16:37;8;7;
49656;PMS5003;52851;38.810;-78.768;2022-07-05T06:19:05;7;5;
49656;PMS5003;52851;38.810;-78.768;2022-07-05T06:21:33;6;6;
49656;PMS5003;52851;38.810;-78.768;2022-07-05T06:24:01;5;4;
49656;PMS5003;52851;38.810;-78.768;2022-07-05T06:26:29;10;8;
49656;PMS5003;52851;38.810;-78.768;2022-07-05T06:28:57;6;6;
49656;PMS5003;52851;38.810;-78.768;2022-07-05T06:31:25;10;9;
49656;PMS5003;52851;38.810;-78.768;2022-07-05T06:33:53;7;7;
49656;PMS5003;52851;38.810;-78.768;2022-07-05T06:36:21;6;6;
49656;PMS5003;52851;38.810;-78.768;2022-07-05T06:38:49;6;6;
49656;PMS5003;52851;38.810;-78.768;2022-07-05T06:41:18;8;7;
49656;PMS5003;52851;38.810;-78.768;2022-07-05T06:43:46;7;7;
49656;PMS5003;52851;38.810;-78.768;2022-07-05T06:46:14;6;6;
49656;PMS5003;52851;38.810;-78.768;2022-07-05T06:48:42;8;8;
49656;PMS5003;52851;38.810;-78.768;2022-07-05T06:51:10;10;8;
49656;PMS5003;52851;38.810;-78.768;2022-07-05T06:53:38;8;8;
49656;PMS5003;52851;38.810;-78.768;2022-07-05T06:56:06;8;7;
49656;PMS5003;52851;38.810;-78.768;2022-07-05T06:58:34;9;8;
49656;PMS5003;52851;38.810;-78.768;2022-07-05T07:01:01;7;7;
49656;PMS5003;52851;38.810;-78.768;2022-07-05T07:03:30;7;7;
49656;PMS5003;52851;38.810;-78.768;2022-07-05T07:05:58;6;6;
49656;PMS5003;52851;38.810;-78.768;2022-07-05T07:08:25;10;9;
49656;PMS5003;52851;38.810;-78.768;2022-07-05T07:10:53;5;5;
49656;PMS5003;52851;38.810;-78.768;2022-07-05T07:13:21;6;6;
49656;PMS5003;52851;38.810;-78.768;2022-07-05T07:15:49;5;5;
49656;PMS5003;52851;38.810;-78.768;2022-07-05T07:18:17;7;6;
49656;PMS5003;52851;38.810;-78.768;2022-07-05T07:20:45;6;6;
49656;PMS5003;52851;38.810;-78.768;2022-07-05T07:23:13;10;7;
49656;PMS5003;52851;38.810;-78.768;2022-07-05T07:25:41;8;7;
49656;PMS5003;52851;38.810;-78.768;2022-07-05T07:28:09;5;5;
49656;PMS5003;52851;38.810;-78.768;2022-07-05T07:30:37;5;5;
49656;PMS5003;52851;38.810;-78.768;2022-07-05T07:33:05;7;5;
49656;PMS5003;52851;38.810;-78.768;2022-07-05T07:35:33;8;7;
49656;PMS5003;52851;38.810;-78.768;2022-07-05T07:38:01;6;6;
49656;PMS5003;52851;38.810;-78.768;2022-07-05T07:40:29;6;6;
49656;PMS5003;52851;38.810;-78.768;2022-07-05T07:42:57;6;4;
49656;PMS5003;52851;38.810;-78.768;2022-07-05T07:45:25;4;4;
49656;PMS5003;52851;38.810;-78.768;2022-07-05T07:47:55;7;3;
49656;PMS5003;52851;38.810;-78.768;2022-07-05T07:50:23;6;5;
49656;PMS5003;52851;38.810;-78.768;2022-07-05T07:52:51;6;6;
49656;PMS5003;52851;38.810;-78.768;2022-07-05T07:55:19;5;4;
49656;PMS5003;52851;38.810;-78.768;2022-07-05T07:57:47;5;3;
49656;PMS5003;52851;38.810;-78.768;2022-07-05T08:00:15;5;5;
49656;PMS5003;52851;38.810;-78.768;2022-07-05T08:02:44;4;4;
49656;PMS5003;52851;38.810;-78.768;2022-07-05T08:05:12;5;5;
49656;PMS5003;52851;38.810;-78.768;2022-07-05T08:07:41;6;5;
49656;PMS5003;52851;38.810;-78.768;2022-07-05T08:10:09;4;4;
49656;PMS5003;52851;38.810;-78.768;2022-07-05T08:12:37;5;5;
49656;PMS5003;52851;38.810;-78.768;2022-07-05T08:15:05;6;6;
49656;PMS5003;52851;38.810;-78.768;2022-07-05T08:17:34;9;7;
49656;PMS5003;52851;38.810;-78.768;2022-07-05T08:20:02;9;6;
49656;PMS5003;52851;38.810;-78.768;2022-07-05T08:22:31;7;7;
49656;PMS5003;52851;38.810;-78.768;2022-07-05T08:24:59;7;4;
49656;PMS5003;52851;38.810;-78.768;2022-07-05T08:27:27;5;5;
49656;PMS5003;52851;38.810;-78.768;2022-07-05T08:29:55;7;6;
49656;PMS5003;52851;38.810;-78.768;2022-07-05T08:32:23;7;7;
49656;PMS5003;52851;38.810;-78.768;2022-07-05T08:34:50;8;8;
49656;PMS5003;52851;38.810;-78.768;2022-07-05T08:37:18;7;6;
49656;PMS5003;52851;38.810;-78.768;2022-07-05T08:39:46;6;6;
49656;PMS5003;52851;38.810;-78.768;2022-07-05T08:42:14;7;7;
49656;PMS5003;52851;38.810;-78.768;2022-07-05T08:44:42;5;5;
49656;PMS5003;52851;38.810;-78.768;2022-07-05T08:47:12;15;9;
49656;PMS5003;52851;38.810;-78.768;2022-07-05T08:49:42;7;6;
49656;PMS5003;52851;38.810;-78.768;2022-07-05T08:52:11;7;7;
49656;PMS5003;52851;38.810;-78.768;2022-07-05T08:54:39;5;5;
49656;PMS5003;52851;38.810;-78.768;2022-07-05T08:57:07;7;6;
49656;PMS5003;52851;38.810;-78.768;2022-07-05T08:59:35;4;4;
49656;PMS5003;52851;38.810;-78.768;2022-07-05T09:02:03;8;6;
49656;PMS5003;52851;38.810;-78.768;2022-07-05T09:04:33;8;5;
49656;PMS5003;52851;38.810;-78.768;2022-07-05T09:07:09;6;6;
49656;PMS5003;52851;38.810;-78.768;2022-07-05T09:09:39;5;5;
49656;PMS5003;52851;38.810;-78.768;2022-07-05T09:12:09;8;6;
49656;PMS5003;52851;38.810;-78.768;2022-07-05T09:14:39;8;7;
49656;PMS5003;52851;38.810;-78.768;2022-07-05T09:17:07;5;5;
49656;PMS5003;52851;38.810;-78.768;2022-07-05T09:19:36;7;7;
49656;PMS5003;52851;38.810;-78.768;2022-07-05T09:22:05;8;8;
49656;PMS5003;52851;38.810;-78.768;2022-07-05T09:24:33;10;7;
49656;PMS5003;52851;38.810;-78.768;2022-07-05T09:27:12;8;7;
49656;PMS5003;52851;38.810;-78.768;2022-07-05T09:29:40;7;7;
49656;PMS5003;52851;38.810;-78.768;2022-07-05T09:32:23;7;7;
49656;PMS5003;52851;38.810;-78.768;2022-07-05T09:34:51;11;11;
49656;PMS5003;52851;38.810;-78.768;2022-07-05T09:37:19;8;8;
49656;PMS5003;52851;38.810;-78.768;2022-07-05T09:39:47;10;8;
49656;PMS5003;52851;38.810;-78.768;2022-07-05T09:42:16;10;8;
49656;PMS5003;52851;38.810;-78.768;2022-07-05T09:44:46;10;9;
49656;PMS5003;52851;38.810;-78.768;2022-07-05T09:47:15;8;6;
49656;PMS5003;52851;38.810;-78.768;2022-07-05T09:49:44;7;6;
49656;PMS5003;52851;38.810;-78.768;2022-07-05T09:52:33;7;7;
49656;PMS5003;52851;38.810;-78.768;2022-07-05T09:55:03;7;7;
49656;PMS5003;52851;38.810;-78.768;2022-07-05T09:57:32;9;6;
49656;PMS5003;52851;38.810;-78.768;2022-07-05T10:00:02;9;6;
49656;PMS5003;52851;38.810;-78.768;2022-07-05T10:02:35;6;5;
49656;PMS5003;52851;38.810;-78.768;2022-07-05T10:05:11;7;7;
49656;PMS5003;52851;38.810;-78.768;2022-07-05T10:07:40;6;6;
49656;PMS5003;52851;38.810;-78.768;2022-07-05T10:10:11;9;9;
49656;PMS5003;52851;38.810;-78.768;2022-07-05T10:12:40;5;5;
49656;PMS5003;52851;38.810;-78.768;2022-07-05T10:15:10;10;6;
49656;PMS5003;52851;38.810;-78.768;2022-07-05T10:17:40;8;6;
49656;PMS5003;52851;38.810;-78.768;2022-07-05T10:20:12;9;9;
49656;PMS5003;52851;38.810;-78.768;2022-07-05T10:22:46;5;5;
49656;PMS5003;52851;38.810;-78.768;2022-07-05T10:25:15;6;6;
49656;PMS5003;52851;38.810;-78.768;2022-07-05T10:27:43;5;5;
49656;PMS5003;52851;38.810;-78.768;2022-07-05T10:30:11;7;7;
49656;PMS5003;52851;38.810;-78.768;2022-07-05T10:32:39;7;4;
49656;PMS5003;52851;38.810;-78.768;2022-07-05T10:35:08;7;7;
49656;PMS5003;52851;38.810;-78.768;2022-07-05T10:37:37;7;7;
49656;PMS5003;52851;38.810;-78.768;2022-07-05T10:40:05;7;7;
49656;PMS5003;52851;38.810;-78.768;2022-07-05T10:42:36;7;7;
49656;PMS5003;52851;38.810;-78.768;2022-07-05T10:45:23;8;7;
49656;PMS5003;52851;38.810;-78.768;2022-07-05T10:48:25;7;6;
49656;PMS5003;52851;38.810;-78.768;2022-07-05T10:50:55;8;7;
49656;PMS5003;52851;38.810;-78.768;2022-07-05T10:53:24;8;8;
49656;PMS5003;52851;38.810;-78.768;2022-07-05T10:55:55;9;8;
49656;PMS5003;52851;38.810;-78.768;2022-07-05T10:58:25;8;8;
49656;PMS5003;52851;38.810;-78.768;2022-07-05T11:01:49;9;9;
49656;PMS5003;52851;38.810;-78.768;2022-07-05T11:04:21;9;7;
49656;PMS5003;52851;38.810;-78.768;2022-07-05T11:06:52;5;5;
49656;PMS5003;52851;38.810;-78.768;2022-07-05T11:09:20;7;6;
49656;PMS5003;52851;38.810;-78.768;2022-07-05T11:12:03;7;7;
49656;PMS5003;52851;38.810;-78.768;2022-07-05T11:14:34;8;8;
49656;PMS5003;52851;38.810;-78.768;2022-07-05T11:17:16;10;10;
49656;PMS5003;52851;38.810;-78.768;2022-07-05T11:20:02;12;9;
49656;PMS5003;52851;38.810;-78.768;2022-07-05T11:22:34;11;9;
49656;PMS5003;52851;38.810;-78.768;2022-07-05T11:25:05;11;11;
49656;PMS5003;52851;38.810;-78.768;2022-07-05T11:27:35;13;11;
49656;PMS5003;52851;38.810;-78.768;2022-07-05T11:30:03;12;11;
49656;PMS5003;52851;38.810;-78.768;2022-07-05T11:32:47;12;11;
49656;PMS5003;52851;38.810;-78.768;2022-07-05T11:35:16;15;12;
49656;PMS5003;52851;38.810;-78.768;2022-07-05T11:38:19;12;11;
49656;PMS5003;52851;38.810;-78.768;2022-07-05T11:40:46;10;10;
49656;PMS5003;52851;38.810;-78.768;2022-07-05T11:43:14;13;13;
49656;PMS5003;52851;38.810;-78.768;2022-07-05T11:45:56;14;14;
49656;PMS5003;52851;38.810;-78.768;2022-07-05T11:48:24;11;11;
49656;PMS5003;52851;38.810;-78.768;2022-07-05T11:50:53;10;10;
49656;PMS5003;52851;38.810;-78.768;2022-07-05T11:53:29;7;7;
49656;PMS5003;52851;38.810;-78.768;2022-07-05T11:55:58;11;10;
49656;PMS5003;52851;38.810;-78.768;2022-07-05T11:58:30;6;6;
49656;PMS5003;52851;38.810;-78.768;2022-07-05T12:00:58;9;8;
49656;PMS5003;52851;38.810;-78.768;2022-07-05T12:03:26;9;6;
49656;PMS5003;52851;38.810;-78.768;2022-07-05T12:05:54;8;8;
49656;PMS5003;52851;38.810;-78.768;2022-07-05T12:08:22;8;8;
49656;PMS5003;52851;38.810;-78.768;2022-07-05T12:10:51;10;10;
49656;PMS5003;52851;38.810;-78.768;2022-07-05T12:13:19;9;9;
49656;PMS5003;52851;38.810;-78.768;2022-07-05T12:15:47;7;7;
49656;PMS5003;52851;38.810;-78.768;2022-07-05T12:18:15;9;8;
49656;PMS5003;52851;38.810;-78.768;2022-07-05T12:20:43;8;7;
49656;PMS5003;52851;38.810;-78.768;2022-07-05T12:23:11;7;7;
49656;PMS5003;52851;38.810;-78.768;2022-07-05T12:25:39;6;6;
49656;PMS5003;52851;38.810;-78.768;2022-07-05T12:28:08;7;6;
49656;PMS5003;52851;38.810;-78.768;2022-07-05T12:30:37;10;6;
49656;PMS5003;52851;38.810;-78.768;2022-07-05T12:33:05;7;7;
49656;PMS5003;52851;38.810;-78.768;2022-07-05T12:35:35;8;8;
49656;PMS5003;52851;38.810;-78.768;2022-07-05T12:38:06;8;8;
49656;PMS5003;52851;38.810;-78.768;2022-07-05T12:40:36;10;8;
49656;PMS5003;52851;38.810;-78.768;2022-07-05T12:43:06;9;9;
49656;PMS5003;52851;38.810;-78.768;2022-07-05T12:45:35;11;9;
49656;PMS5003;52851;38.810;-78.768;2022-07-05T12:48:05;10;9;
49656;PMS5003;52851;38.810;-78.768;2022-07-05T12:50:51;13;10;
49656;PMS5003;52851;38.810;-78.768;2022-07-05T12:53:19;11;11;
49656;PMS5003;52851;38.810;-78.768;2022-07-05T12:55:47;15;11;
49656;PMS5003;52851;38.810;-78.768;2022-07-05T12:58:16;14;11;
49656;PMS5003;52851;38.810;-78.768;2022-07-05T13:00:44;12;10;
49656;PMS5003;52851;38.810;-78.768;2022-07-05T13:03:12;10;10;
49656;PMS5003;52851;38.810;-78.768;2022-07-05T13:05:39;8;8;
49656;PMS5003;52851;38.810;-78.768;2022-07-05T13:08:07;9;8;
49656;PMS5003;52851;38.810;-78.768;2022-07-05T13:10:35;12;10;
49656;PMS5003;52851;38.810;-78.768;2022-07-05T13:13:14;11;11;
49656;PMS5003;52851;38.810;-78.768;2022-07-05T13:15:42;8;8;
49656;PMS5003;52851;38.810;-78.768;2022-07-05T13:18:11;11;10;
49656;PMS5003;52851;38.810;-78.768;2022-07-05T13:20:49;10;10;
49656;PMS5003;52851;38.810;-78.768;2022-07-05T13:23:17;10;10;
49656;PMS5003;52851;38.810;-78.768;2022-07-05T13:25:44;7;7;
49656;PMS5003;52851;38.810;-78.768;2022-07-05T13:28:12;7;7;
49656;PMS5003;52851;38.810;-78.768;2022-07-05T13:30:40;12;9;
49656;PMS5003;52851;38.810;-78.768;2022-07-05T13:33:08;10;10;
49656;PMS5003;52851;38.810;-78.768;2022-07-05T13:35:36;13;12;
49656;PMS5003;52851;38.810;-78.768;2022-07-05T13:38:05;11;11;
49656;PMS5003;52851;38.810;-78.768;2022-07-05T13:40:32;14;11;
49656;PMS5003;52851;38.810;-78.768;2022-07-05T13:43:00;13;11;
49656;PMS5003;52851;38.810;-78.768;2022-07-05T13:45:28;11;11;
49656;PMS5003;52851;38.810;-78.768;2022-07-05T13:47:56;11;9;
49656;PMS5003;52851;38.810;-78.768;2022-07-05T13:50:24;12;12;
49656;PMS5003;52851;38.810;-78.768;2022-07-05T13:52:52;14;12;
49656;PMS5003;52851;38.810;-78.768;2022-07-05T13:55:20;15;14;
49656;PMS5003;52851;38.810;-78.768;2022-07-05T13:57:48;20;17;
49656;PMS5003;52851;38.810;-78.768;2022-07-05T14:00:16;15;14;
49656;PMS5003;52851;38.810;-78.768;2022-07-05T14:02:44;17;15;
49656;PMS5003;52851;38.810;-78.768;2022-07-05T14:05:13;21;17;
49656;PMS5003;52851;38.810;-78.768;2022-07-05T14:07:40;18;18;
49656;PMS5003;52851;38.810;-78.768;2022-07-05T14:10:08;18;17;
49656;PMS5003;52851;38.810;-78.768;2022-07-05T14:12:36;13;12;
49656;PMS5003;52851;38.810;-78.768;2022-07-05T14:15:04;15;15;
49656;PMS5003;52851;38.810;-78.768;2022-07-05T14:17:33;15;14;
49656;PMS5003;52851;38.810;-78.768;2022-07-05T14:20:01;14;11;
49656;PMS5003;52851;38.810;-78.768;2022-07-05T14:22:29;16;14;
49656;PMS5003;52851;38.810;-78.768;2022-07-05T14:24:56;11;10;
49656;PMS5003;52851;38.810;-78.768;2022-07-05T14:27:24;17;15;
49656;PMS5003;52851;38.810;-78.768;2022-07-05T14:29:52;18;15;
49656;PMS5003;52851;38.810;-78.768;2022-07-05T14:32:19;16;16;
49656;PMS5003;52851;38.810;-78.768;2022-07-05T14:34:47;15;13;
49656;PMS5003;52851;38.810;-78.768;2022-07-05T14:37:15;17;15;
49656;PMS5003;52851;38.810;-78.768;2022-07-05T14:39:43;15;15;
49656;PMS5003;52851;38.810;-78.768;2022-07-05T14:42:11;13;13;
49656;PMS5003;52851;38.810;-78.768;2022-07-05T14:44:39;12;11;
49656;PMS5003;52851;38.810;-78.768;2022-07-05T14:47:07;14;13;
49656;PMS5003;52851;38.810;-78.768;2022-07-05T14:49:34;11;11;
49656;PMS5003;52851;38.810;-78.768;2022-07-05T14:52:03;13;13;
49656;PMS5003;52851;38.810;-78.768;2022-07-05T14:54:31;11;10;
49656;PMS5003;52851;38.810;-78.768;2022-07-05T14:56:59;17;14;
49656;PMS5003;52851;38.810;-78.768;2022-07-05T14:59:27;15;13;
49656;PMS5003;52851;38.810;-78.768;2022-07-05T15:01:55;17;16;
49656;PMS5003;52851;38.810;-78.768;2022-07-05T15:04:22;15;15;
49656;PMS5003;52851;38.810;-78.768;2022-07-05T15:06:50;11;11;
49656;PMS5003;52851;38.810;-78.768;2022-07-05T15:09:18;13;11;
49656;PMS5003;52851;38.810;-78.768;2022-07-05T15:11:45;14;12;
49656;PMS5003;52851;38.810;-78.768;2022-07-05T15:14:13;8;7;
49656;PMS5003;52851;38.810;-78.768;2022-07-05T15:16:41;13;12;
49656;PMS5003;52851;38.810;-78.768;2022-07-05T15:19:09;10;10;
49656;PMS5003;52851;38.810;-78.768;2022-07-05T15:21:37;16;12;
49656;PMS5003;52851;38.810;-78.768;2022-07-05T15:24:05;9;9;
49656;PMS5003;52851;38.810;-78.768;2022-07-05T15:26:34;16;13;
49656;PMS5003;52851;38.810;-78.768;2022-07-05T15:29:02;13;10;
49656;PMS5003;52851;38.810;-78.768;2022-07-05T15:31:32;15;14;
49656;PMS5003;52851;38.810;-78.768;2022-07-05T15:34:03;15;13;
49656;PMS5003;52851;38.810;-78.768;2022-07-05T15:36:31;15;13;
49656;PMS5003;52851;38.810;-78.768;2022-07-05T15:38:59;12;12;
49656;PMS5003;52851;38.810;-78.768;2022-07-05T15:41:29;12;11;
49656;PMS5003;52851;38.810;-78.768;2022-07-05T15:43:58;9;9;
49656;PMS5003;52851;38.810;-78.768;2022-07-05T15:46:26;14;13;
49656;PMS5003;52851;38.810;-78.768;2022-07-05T15:48:54;16;14;
49656;PMS5003;52851;38.810;-78.768;2022-07-05T15:51:22;15;15;
49656;PMS5003;52851;38.810;-78.768;2022-07-05T15:53:50;14;13;
49656;PMS5003;52851;38.810;-78.768;2022-07-05T15:56:18;12;12;
49656;PMS5003;52851;38.810;-78.768;2022-07-05T15:58:46;16;11;
49656;PMS5003;52851;38.810;-78.768;2022-07-05T16:01:14;13;12;
49656;PMS5003;52851;38.810;-78.768;2022-07-05T16:03:42;9;9;
49656;PMS5003;52851;38.810;-78.768;2022-07-05T16:06:10;12;12;
49656;PMS5003;52851;38.810;-78.768;2022-07-05T16:08:38;11;11;
49656;PMS5003;52851;38.810;-78.768;2022-07-05T16:11:06;12;12;
49656;PMS5003;52851;38.810;-78.768;2022-07-05T16:13:34;14;12;
49656;PMS5003;52851;38.810;-78.768;2022-07-05T16:16:02;15;13;
49656;PMS5003;52851;38.810;-78.768;2022-07-05T16:18:31;18;18;
49656;PMS5003;52851;38.810;-78.768;2022-07-05T16:20:59;17;16;